Latest Weather Observations for Blackall

IDQ60801

Issued at 3:02 pm EST Sunday 25 September 2016 (issued every 30 minutes, with the page automatically refreshed every 10 minutes)

About weather observations | Map of weather stations | Latest weather observations for QLD | Other Formats
Station Details ID: 036034 Name: BLACKALL AIRPORT Lat: -24.43 Lon: 145.43 Height: 281.3 m
Data from the previous 72 hours. | See also: Recent months at Blackall
Date/Time
EST
Temp
°C
App
Temp
°C
Dew
Point
°C
Rel
Hum
%
Delta-T
°C
Wind Press
QNH
hPa
Press
MSL
hPa
Rain since
9am
mm
Dir  Spd
km/h
Gust
km/h
Spd
kts
Gust
kts
25/03:00pm 25.7 22.2 8.7 34 9.3 WSW 17 24 9 13 1012.0 1011.0 0.0
25/02:30pm 25.3 22.3 9.2 36 8.9 SSW 15 26 8 14 1012.0 1011.0 0.0
25/02:00pm 24.9 21.2 8.0 34 9.1 SW 17 26 9 14 1012.4 1011.4 0.0
25/01:30pm 24.7 21.3 9.0 37 8.6 SW 17 22 9 12 1012.7 1011.7 0.0
25/01:00pm 24.5 20.5 8.9 37 8.5 SW 20 30 11 16 1013.0 1012.0 0.0
25/12:30pm 24.5 21.3 10.0 40 8.1 SSW 17 24 9 13 1013.2 1012.2 0.0
25/12:00pm 24.0 20.8 9.9 41 7.8 SSW 17 26 9 14 1013.7 1012.7 0.0
25/11:30am 23.6 19.8 9.9 42 7.6 SSW 20 28 11 15 1014.2 1013.1 0.0
25/11:00am 24.1 20.7 11.4 45 7.2 SSW 20 30 11 16 1014.2 1013.1 0.0
25/10:30am 23.5 19.8 10.2 43 7.4 S 20 32 11 17 1014.3 1013.2 0.0
25/10:00am 22.8 18.8 10.6 46 6.8 S 22 33 12 18 1014.4 1013.3 0.0
25/09:30am 22.3 19.1 12.0 52 5.9 SSW 20 28 11 15 1014.4 1013.3 0.0
25/09:00am 21.4 17.3 11.4 53 5.6 SSW 24 33 13 18 1014.5 1013.4 0.0
25/08:30am 20.7 17.0 12.7 60 4.6 SSW 24 33 13 18 1014.3 1013.2 0.0
25/08:00am 20.2 17.5 12.9 63 4.2 S 19 26 10 14 1013.6 1012.6 0.0
25/07:30am 18.8 17.7 13.2 70 3.2 S 11 15 6 8 1013.2 1012.2 0.0
25/07:00am 17.9 16.8 13.0 73 2.8 S 11 17 6 9 1012.7 1011.7 0.0
25/06:30am 17.3 15.0 13.0 76 2.4 SSW 17 24 9 13 1012.3 1011.3 0.0
25/06:00am 16.9 15.1 13.2 79 2.1 SSW 15 20 8 11 1011.7 1010.6 0.0
25/05:30am 16.2 17.4 13.7 85 1.4 CALM 0 0 0 0 1010.9 1009.8 0.0
25/05:00am 16.4 16.6 12.9 80 2.0 SSW 4 9 2 5 1010.2 1009.2 0.0
25/04:30am 17.2 15.8 12.3 73 2.7 SSW 11 17 6 9 1010.6 1009.5 0.0
25/04:00am 17.1 16.1 12.2 73 2.7 S 9 13 5 7 1010.2 1009.2 0.0
25/03:30am 17.1 16.2 12.6 75 2.5 SSW 9 13 5 7 1010.6 1009.5 0.0
25/03:00am 16.4 17.6 13.7 84 1.5 CALM 0 0 0 0 1010.7 1009.6 0.0
25/02:30am 16.4 17.4 13.1 81 1.9 CALM 0 0 0 0 1010.6 1009.5 0.0
25/02:00am 16.3 17.1 12.7 79 2.0 CALM 0 0 0 0 1010.3 1009.3 0.0
25/01:30am 16.7 15.8 12.5 76 2.4 S 9 13 5 7 1010.2 1009.2 0.0
25/01:00am 17.0 16.8 12.9 77 2.3 SSE 6 9 3 5 1010.2 1009.2 0.0
25/12:30am 16.8 16.1 13.1 79 2.1 SE 9 13 5 7 1010.2 1009.2 0.0
25/12:00am 16.5 16.5 13.6 83 1.7 ESE 6 7 3 4 1010.5 1009.4 0.0
 
Date/Time
EST
Temp
°C
App
Temp
°C
Dew
Point
°C
Rel
Hum
%
Delta-T
°C
Wind Press
QNH
hPa
Press
MSL
hPa
Rain since
9am
mm
Dir  Spd
km/h
Gust
km/h
Spd
kts
Gust
kts
24/11:30pm 16.2 16.0 12.9 81 1.9 SSW 6 7 3 4 1010.8 1009.7 0.0
24/11:00pm 15.8 16.6 12.4 80 1.9 CALM 0 0 0 0 1010.5 1009.4 0.0
24/10:30pm 16.1 16.1 12.3 78 2.1 NNE 4 7 2 4 1010.6 1009.5 0.0
24/10:00pm 16.2 15.5 12.0 76 2.3 NNE 7 9 4 5 1010.6 1009.5 0.0
24/09:30pm 17.5 18.1 12.0 70 3.1 CALM 0 0 0 0 1010.7 1009.6 0.0
24/09:00pm 17.5 18.3 12.4 72 2.9 CALM 0 0 0 0 1010.7 1009.6 0.0
24/08:30pm 17.3 18.0 12.2 72 2.8 CALM 0 0 0 0 1010.6 1009.5 0.0
24/08:00pm 17.3 18.2 13.0 76 2.4 CALM 0 6 0 3 1010.3 1009.3 0.0
24/07:30pm 18.5 19.6 13.6 73 2.8 CALM 0 0 0 0 1010.2 1009.2 0.0
24/07:00pm 19.8 20.3 11.6 59 4.6 CALM 0 0 0 0 1009.9 1008.9 0.0
24/06:30pm 21.8 21.9 10.0 47 6.5 CALM 0 0 0 0 1009.6 1008.6 0.0
24/06:00pm 23.7 22.5 10.4 43 7.4 NNW 7 9 4 5 1009.4 1008.4 0.0
24/05:30pm 25.2 24.0 9.5 37 8.7 NNW 6 9 3 5 1009.1 1008.1 0.0
24/05:00pm 26.4 24.7 9.7 35 9.4 NW 9 13 5 7 1009.2 1008.2 0.0
24/04:30pm 26.7 25.0 10.0 35 9.4 W 9 19 5 10 1009.2 1008.2 0.0
24/04:00pm 26.5 24.8 9.8 35 9.4 NW 9 17 5 9 1009.2 1008.2 0.0
24/03:30pm 26.6 24.5 9.9 35 9.4 NW 11 20 6 11 1009.3 1008.3 0.0
24/03:00pm 26.5 23.4 8.9 33 9.7 NW 15 24 8 13 1009.6 1008.6 0.0
24/02:30pm 26.1 22.7 7.7 31 9.9 NW 15 32 8 17 1010.0 1009.0 0.0
24/02:00pm 26.1 22.8 8.1 32 9.8 NW 15 24 8 13 1010.3 1009.3 0.0
24/01:30pm 26.3 23.3 9.2 34 9.5 NW 15 26 8 14 1010.8 1009.7 0.0
24/01:00pm 26.2 23.4 10.0 36 9.1 NW 15 20 8 11 1011.2 1010.1 0.0
24/12:30pm 25.5 22.0 7.1 31 9.8 NW 15 22 8 12 1011.3 1010.2 0.0
24/12:00pm 25.1 22.3 6.8 31 9.7 WNW 11 20 6 11 1011.6 1010.5 0.0
24/11:30am 24.5 21.6 8.0 35 8.9 NW 13 22 7 12 1012.2 1011.2 0.0
24/11:00am 24.1 21.5 9.3 39 8.1 WNW 13 24 7 13 1012.6 1011.6 0.0
24/10:30am 23.1 21.9 10.2 44 7.2 NNW 7 13 4 7 1012.8 1011.8 0.0
24/10:00am 22.5 20.7 10.9 48 6.5 NNW 11 17 6 9 1013.0 1012.0 0.0
24/09:30am 21.3 20.3 12.2 56 5.2 NNW 9 13 5 7 1013.3 1012.3 0.0
24/09:00am 19.4 18.3 11.9 62 4.2 N 9 11 5 6 1013.3 1012.3 0.0
24/08:30am 17.6 16.0 11.4 67 3.4 NNE 11 17 6 9 1013.0 1012.0 0.0
24/08:00am 15.8 13.8 11.4 75 2.4 NE 13 17 7 9 1012.7 1011.7 0.0
24/07:30am 13.9 11.7 10.7 81 1.7 NE 13 17 7 9 1012.6 1011.6 0.0
24/07:00am 12.8 10.8 10.2 84 1.4 ENE 11 17 6 9 1012.2 1011.2 0.0
24/06:30am 11.3 9.4 10.4 94 0.5 ENE 11 13 6 7 1012.0 1011.0 0.0
24/06:00am 10.1 8.3 9.3 95 0.4 ESE 9 11 5 6 1012.1 1011.1 0.0
24/05:30am 10.5 9.4 10.5 100 0.0 S 7 7 4 4 1012.2 1011.2 0.0
24/05:00am 10.0 8.9 9.9 99 0.1 SSE 6 9 3 5 1012.1 1011.1 0.0
24/04:30am 10.3 9.8 9.5 95 0.4 ENE 2 7 1 4 1011.5 1010.4 0.0
24/04:00am 10.9 9.6 9.2 89 0.9 ENE 6 9 3 5 1011.3 1010.2 0.0
24/03:30am 11.5 10.6 10.6 94 0.5 ESE 6 7 3 4 1011.5 1010.4 0.0
24/03:00am 11.3 11.1 10.5 95 0.4 ESE 2 6 1 3 1011.8 1010.7 0.0
24/02:30am 11.3 10.4 10.5 95 0.4 ESE 6 7 3 4 1011.9 1010.9 0.0
24/02:00am 11.7 12.1 11.1 96 0.3 CALM 0 0 0 0 1012.0 1011.0 0.0
24/01:30am 11.9 11.3 10.3 90 0.8 ESE 4 7 2 4 1012.2 1011.2 0.0
24/01:00am 12.5 11.6 10.6 88 1.0 E 6 7 3 4 1012.3 1011.3 0.0
24/12:30am 12.7 13.5 12.7 100 0.0 CALM 0 0 0 0 1012.4 1011.4 0.0
24/12:00am 12.4 13.1 12.2 99 0.1 CALM 0 0 0 0 1012.7 1011.7 0.0
 
Date/Time
EST
Temp
°C
App
Temp
°C
Dew
Point
°C
Rel
Hum
%
Delta-T
°C
Wind Press
QNH
hPa
Press
MSL
hPa
Rain since
9am
mm
Dir  Spd
km/h
Gust
km/h
Spd
kts
Gust
kts
23/11:30pm 13.0 13.3 12.1 94 0.5 ESE 2 6 1 3 1012.9 1011.9 0.0
23/11:00pm 13.3 12.7 12.4 94 0.5 ESE 7 9 4 5 1013.0 1012.0 0.0
23/10:30pm 13.5 14.2 13.3 99 0.1 SSW 2 7 1 4 1013.3 1012.3 0.0
23/10:00pm 13.9 13.4 12.8 93 0.6 S 7 7 4 4 1013.4 1012.4 0.0
23/09:30pm 14.4 14.1 12.8 90 0.9 S 6 7 3 4 1013.6 1012.6 0.0
23/09:00pm 14.6 15.4 12.6 88 1.1 CALM 0 0 0 0 1013.5 1012.5 0.0
23/08:30pm 14.5 15.1 11.8 84 1.5 CALM 0 0 0 0 1013.4 1012.4 0.0
23/08:00pm 15.2 16.0 12.5 84 1.5 CALM 0 0 0 0 1013.3 1012.3 0.0
23/07:30pm 16.0 16.6 11.8 76 2.3 CALM 0 0 0 0 1012.9 1011.9 0.0
23/07:00pm 16.8 17.2 11.3 70 3.0 CALM 0 0 0 0 1012.5 1011.5 0.0
23/06:30pm 18.6 18.6 9.9 57 4.7 CALM 0 0 0 0 1012.3 1011.3 0.0
23/06:00pm 20.3 18.8 9.2 49 6.0 SW 7 11 4 6 1012.1 1011.1 0.0
23/05:30pm 21.7 20.2 8.6 43 7.0 SW 6 9 3 5 1012.0 1011.0 0.0
23/05:00pm 21.7 20.1 8.6 43 7.0 SSW 7 11 4 6 1011.8 1010.7 0.0
23/04:30pm 21.9 20.3 8.8 43 7.0 SSE 7 15 4 8 1011.8 1010.7 0.0
23/04:00pm 22.1 20.5 8.9 43 7.1 SSW 7 13 4 7 1011.9 1010.9 0.0
23/03:30pm 22.2 21.0 9.4 44 7.0 SW 6 13 3 7 1012.1 1011.1 0.0
23/03:00pm 22.2 21.6 9.0 43 7.1 N 2 15 1 8 1012.3 1011.3 0.0
23/02:30pm 21.6 19.7 9.2 45 6.7 SSW 9 17 5 9 1013.0 1012.0 0.0
23/02:00pm 21.2 19.3 9.1 46 6.5 SSW 9 15 5 8 1013.3 1012.3 0.0
23/01:30pm 21.0 19.9 8.6 45 6.6 E 4 13 2 7 1013.6 1012.6 0.0
23/01:00pm 21.1 19.9 10.3 50 5.9 SSW 7 15 4 8 1014.3 1013.2 0.0
23/12:30pm 20.1 18.3 8.1 46 6.3 ESE 7 13 4 7 1014.6 1013.5 0.0
23/12:00pm 19.8 17.8 8.5 48 6.0 WSW 9 13 5 7 1015.0 1014.0 0.0
23/11:30am 19.7 18.0 8.4 48 6.0 SSW 7 15 4 8 1015.6 1014.6 0.0
23/11:00am 19.6 17.7 7.7 46 6.2 SSE 7 17 4 9 1016.0 1015.0 0.0
23/10:30am 19.1 17.0 8.1 49 5.7 SE 9 15 5 8 1016.4 1015.4 0.0
23/10:00am 18.2 16.3 7.6 50 5.4 SSE 7 13 4 7 1016.7 1015.7 0.0
23/09:30am 18.0 14.8 8.3 53 5.1 ESE 15 20 8 11 1016.8 1015.8 0.0
23/09:00am 17.3 14.5 10.0 62 3.9 E 15 20 8 11 1016.7 1015.7 0.0
23/08:30am 16.1 13.4 10.4 69 3.1 ESE 15 19 8 10 1016.9 1015.9 0.0
23/08:00am 14.4 12.0 10.2 76 2.2 ESE 13 17 7 9 1016.9 1015.9 0.0
23/07:30am 12.4 11.1 9.8 84 1.3 SE 7 13 4 7 1016.6 1015.6 0.0
23/07:00am 11.0 9.5 9.3 89 0.9 SE 7 9 4 5 1016.2 1015.2 0.0
23/06:30am 9.6 8.2 9.0 96 0.3 SE 6 9 3 5 1015.9 1014.9 0.0
23/06:00am 9.5 7.9 8.7 95 0.4 SSE 7 9 4 5 1015.5 1014.5 0.0
23/05:30am 9.5 7.9 8.7 95 0.4 SSE 7 9 4 5 1015.3 1014.3 0.0
23/05:00am 9.9 8.0 9.1 95 0.4 S 9 11 5 6 1015.1 1014.1 0.0
23/04:30am 10.1 8.6 9.2 94 0.5 S 7 9 4 5 1014.9 1013.8 0.0
23/04:00am 10.3 8.7 8.7 90 0.8 SSE 7 9 4 5 1014.7 1013.6 0.0
23/03:30am 10.8 9.4 8.9 88 1.0 SE 6 7 3 4 1014.7 1013.6 0.0
23/03:00am 11.1 9.2 9.0 87 1.1 SE 9 11 5 6 1014.8 1013.7 0.0
23/02:30am 11.2 9.7 9.1 87 1.1 SE 7 9 4 5 1015.1 1014.1 0.0
23/02:00am 11.6 9.6 8.8 83 1.4 SSE 9 11 5 6 1015.3 1014.3 0.0
23/01:30am 11.6 9.7 9.0 84 1.3 S 9 9 5 5 1015.7 1014.7 0.0
23/01:00am 12.0 10.1 9.2 83 1.4 S 9 13 5 7 1016.0 1015.0 0.0
23/12:30am 12.3 10.9 9.5 83 1.4 SSE 7 9 4 5 1016.3 1015.3 0.0
23/12:00am 12.1 11.2 9.3 83 1.4 SSE 4 7 2 4 1016.3 1015.3 0.0
 
Date/Time
EST
Temp
°C
App
Temp
°C
Dew
Point
°C
Rel
Hum
%
Delta-T
°C
Wind Press
QNH
hPa
Press
MSL
hPa
Rain since
9am
mm
Dir  Spd
km/h
Gust
km/h
Spd
kts
Gust
kts
22/11:30pm 12.9 11.1 9.4 79 1.8 S 9 11 5 6 1016.6 1015.6 0.0
22/11:00pm 13.0 11.6 9.4 79 1.9 S 7 9 4 5 1016.9 1015.9 0.0
22/10:30pm 13.5 11.7 9.4 76 2.1 S 9 13 5 7 1017.0 1016.0 0.0
22/10:00pm 14.1 11.9 9.3 73 2.5 SSE 11 15 6 8 1017.0 1016.0 0.0
22/09:30pm 14.7 12.5 9.5 71 2.7 SSW 11 17 6 9 1017.0 1016.0 0.0
22/09:00pm 15.1 13.2 9.2 68 3.1 S 9 11 5 6 1016.8 1015.8 0.0
22/08:30pm 15.6 13.8 9.5 67 3.2 S 9 13 5 7 1016.6 1015.6 0.0
22/08:00pm 15.9 14.1 9.6 66 3.3 S 9 13 5 7 1016.5 1015.5 0.0
22/07:30pm 16.8 15.1 9.7 63 3.8 S 9 15 5 8 1016.2 1015.2 0.0
22/07:00pm 17.5 16.1 9.7 60 4.2 SSE 7 9 4 5 1015.8 1014.8 0.0
22/06:30pm 18.3 16.9 9.6 57 4.7 SSE 7 9 4 5 1015.5 1014.5 0.0
22/06:00pm 19.7 17.6 8.4 48 6.0 SSE 9 11 5 6 1015.2 1014.2 0.0
22/05:30pm 20.7 17.7 7.7 43 6.8 S 13 17 7 9 1015.0 1014.0 0.0
22/05:00pm 21.1 17.3 7.7 42 7.0 SSW 17 26 9 14 1014.8 1013.7 0.0
22/04:30pm 21.5 17.7 7.7 41 7.3 SW 17 26 9 14 1014.7 1013.6 0.0
22/04:00pm 21.1 17.8 6.2 38 7.6 SSW 13 24 7 13 1014.5 1013.4 0.0
22/03:30pm 22.0 18.7 8.2 41 7.3 SW 15 24 8 13 1014.6 1013.5 0.0

Other Formats:

Comma delimited format used in spreadsheet applications
http://www.bom.gov.au/fwo/IDQ60801/IDQ60801.95351.axf

JavaScript Object Notation format (JSON) in row-major order
http://www.bom.gov.au/fwo/IDQ60801/IDQ60801.95351.json